createdAt,value
2023-08-06T00:01:11.830Z,5.13
2023-08-06T00:04:15.627Z,5.55
2023-08-06T00:07:18.959Z,4.90
2023-08-06T00:10:22.519Z,4.30
2023-08-06T00:13:26.063Z,3.90
2023-08-06T00:16:29.503Z,3.83
2023-08-06T00:19:34.208Z,3.72
2023-08-06T00:22:39.320Z,4.05
2023-08-06T00:25:43.103Z,4.00
2023-08-06T00:28:46.700Z,4.00
2023-08-06T00:31:50.434Z,4.60
2023-08-06T00:34:54.229Z,4.80
2023-08-06T00:37:57.902Z,10.15
2023-08-06T00:41:01.522Z,3.60
2023-08-06T00:44:05.640Z,3.40
2023-08-06T00:47:10.632Z,3.60
2023-08-06T00:50:14.342Z,3.80
2023-08-06T00:53:17.955Z,4.28
2023-08-06T00:56:21.774Z,4.53
2023-08-06T00:59:25.394Z,4.67
2023-08-06T01:02:29.038Z,4.25
2023-08-06T01:05:32.907Z,4.22
2023-08-06T01:08:46.582Z,3.83
2023-08-06T01:12:06.297Z,4.57
2023-08-06T01:15:19.919Z,4.00
2023-08-06T01:18:23.562Z,4.32
2023-08-06T01:21:27.222Z,4.65
2023-08-06T01:24:31.242Z,4.93
2023-08-06T01:27:55.053Z,7.07
2023-08-06T01:31:01.501Z,4.23
2023-08-06T01:34:09.801Z,4.18
2023-08-06T01:37:14.137Z,3.85
2023-08-06T01:40:17.720Z,4.18
2023-08-06T01:43:21.341Z,4.30
2023-08-06T01:46:24.932Z,4.50
2023-08-06T01:49:28.634Z,4.20
2023-08-06T01:52:32.222Z,4.10
2023-08-06T01:55:35.911Z,3.72
2023-08-06T01:58:39.496Z,3.50
2023-08-06T02:01:42.905Z,3.83
2023-08-06T02:04:46.544Z,8.20
2023-08-06T02:07:50.160Z,5.70
2023-08-06T02:10:53.756Z,3.75
2023-08-06T02:13:57.190Z,4.03
2023-08-06T02:17:00.800Z,3.60
2023-08-06T02:20:04.602Z,3.67
2023-08-06T02:23:08.511Z,3.67
2023-08-06T02:26:12.098Z,3.67
2023-08-06T02:29:15.793Z,4.05
2023-08-06T02:32:20.557Z,3.93
2023-08-06T02:35:24.628Z,3.85
2023-08-06T02:38:28.126Z,3.80
2023-08-06T02:41:31.761Z,3.70
2023-08-06T02:44:35.806Z,5.25
2023-08-06T02:47:39.363Z,3.80
2023-08-06T02:50:43.903Z,3.35
2023-08-06T02:53:47.501Z,3.50
2023-08-06T02:56:52.804Z,3.25
2023-08-06T03:00:02.028Z,3.92
2023-08-06T03:03:06.180Z,3.40
2023-08-06T03:06:20.028Z,3.72
2023-08-06T03:09:27.282Z,3.67
2023-08-06T03:12:30.955Z,3.45
2023-08-06T03:15:37.069Z,3.90
2023-08-06T03:18:41.347Z,3.40
2023-08-06T03:21:46.356Z,3.72
2023-08-06T03:24:54.944Z,3.78
2023-08-06T03:28:01.338Z,3.35
2023-08-06T03:31:05.703Z,5.63
2023-08-06T03:34:15.318Z,3.33
2023-08-06T03:37:19.100Z,3.45
2023-08-06T03:40:22.885Z,3.90
2023-08-06T03:43:26.690Z,3.28
2023-08-06T03:46:31.000Z,3.45
2023-08-06T03:49:34.791Z,3.10
2023-08-06T03:52:38.572Z,3.25
2023-08-06T03:55:42.819Z,3.00
2023-08-06T03:58:46.765Z,3.63
2023-08-06T04:01:50.968Z,2.88
2023-08-06T04:04:55.568Z,2.80
2023-08-06T04:07:58.969Z,3.03
2023-08-06T04:11:02.597Z,2.97
2023-08-06T04:14:06.695Z,3.20
2023-08-06T04:17:10.288Z,3.00
2023-08-06T04:20:14.055Z,3.47
2023-08-06T04:23:17.629Z,3.55
2023-08-06T04:26:21.357Z,3.30
2023-08-06T04:29:24.887Z,3.42
2023-08-06T04:32:29.143Z,3.58
2023-08-06T04:35:32.677Z,3.13
2023-08-06T04:38:36.278Z,3.70
2023-08-06T04:41:39.809Z,3.80
2023-08-06T04:44:43.810Z,3.30
2023-08-06T04:47:47.369Z,3.97
2023-08-06T04:50:52.660Z,3.63
2023-08-06T04:53:56.353Z,3.70
2023-08-06T04:57:00.173Z,4.18
2023-08-06T05:00:07.129Z,4.25
2023-08-06T05:03:10.831Z,4.78
2023-08-06T05:06:14.451Z,4.30
2023-08-06T05:09:17.944Z,4.00
2023-08-06T05:12:21.431Z,5.28
2023-08-06T05:15:27.085Z,6.68
2023-08-06T05:18:32.370Z,6.97
2023-08-06T05:21:35.865Z,6.87
2023-08-06T05:24:39.744Z,5.03
2023-08-06T05:27:43.452Z,4.13
2023-08-06T05:30:47.040Z,4.30
2023-08-06T05:33:50.553Z,4.53
2023-08-06T05:36:54.706Z,4.00
2023-08-06T05:39:58.296Z,3.80
2023-08-06T05:43:01.861Z,4.60
2023-08-06T05:46:05.972Z,3.92
2023-08-06T05:49:09.506Z,4.38
2023-08-06T05:52:12.987Z,4.43
2023-08-06T05:55:16.605Z,4.03
2023-08-06T05:58:22.025Z,4.25
2023-08-06T06:01:26.083Z,3.88
2023-08-06T06:04:31.380Z,4.30
2023-08-06T06:07:34.669Z,4.20
2023-08-06T06:10:38.319Z,4.28
2023-08-06T06:13:42.047Z,4.95
2023-08-06T06:16:45.550Z,5.13
2023-08-06T06:19:48.997Z,7.32
2023-08-06T06:22:52.622Z,5.00
2023-08-06T06:25:57.478Z,5.00
2023-08-06T06:29:01.653Z,5.25
2023-08-06T06:32:05.265Z,4.60
2023-08-06T06:35:09.409Z,4.53
2023-08-06T06:38:12.773Z,4.50
2023-08-06T06:41:16.376Z,4.22
2023-08-06T06:44:22.141Z,3.88
2023-08-06T06:47:25.818Z,4.68
2023-08-06T06:50:29.499Z,4.80
2023-08-06T06:53:33.082Z,4.50
2023-08-06T06:56:36.628Z,5.25
2023-08-06T06:59:40.485Z,4.80
2023-08-06T07:02:43.969Z,4.70
2023-08-06T07:05:47.564Z,5.20
2023-08-06T07:08:51.483Z,4.63
2023-08-06T07:11:55.256Z,5.07
2023-08-06T07:14:59.093Z,9.93
2023-08-06T07:18:02.942Z,5.43
2023-08-06T07:21:06.585Z,4.90
2023-08-06T07:24:10.270Z,5.27
2023-08-06T07:27:13.750Z,4.90
2023-08-06T07:30:17.512Z,5.60
2023-08-06T07:33:21.007Z,10.00
2023-08-06T07:36:24.559Z,5.72
2023-08-06T07:39:30.258Z,5.67
2023-08-06T07:42:33.893Z,5.93
2023-08-06T07:45:37.669Z,5.47
2023-08-06T07:48:41.500Z,4.30
2023-08-06T07:51:44.995Z,5.40
2023-08-06T07:54:48.559Z,4.90
2023-08-06T07:57:52.226Z,4.90
2023-08-06T08:00:55.608Z,4.53
2023-08-06T08:03:59.230Z,5.40
2023-08-06T08:07:02.801Z,4.80
2023-08-06T08:10:07.180Z,5.13
2023-08-06T08:13:10.778Z,4.60
2023-08-06T08:16:14.458Z,5.05
2023-08-06T08:19:17.907Z,5.13
2023-08-06T08:22:21.736Z,4.30
2023-08-06T08:25:25.294Z,4.87
2023-08-06T08:28:28.720Z,5.05
2023-08-06T08:31:32.513Z,4.95
2023-08-06T08:34:35.936Z,5.30
2023-08-06T08:37:39.606Z,5.03
2023-08-06T08:40:49.333Z,5.10
2023-08-06T08:43:53.602Z,5.13
2023-08-06T08:46:57.583Z,5.05
2023-08-06T08:50:02.911Z,5.53
2023-08-06T08:53:07.317Z,5.63
2023-08-06T08:56:12.705Z,4.90
2023-08-06T08:59:16.294Z,5.43
2023-08-06T09:02:23.146Z,5.72
2023-08-06T09:05:30.725Z,5.28
2023-08-06T09:08:39.981Z,5.90
2023-08-06T09:11:46.229Z,5.43
2023-08-06T09:14:49.680Z,5.47
2023-08-06T09:17:54.920Z,5.43
2023-08-06T09:20:59.660Z,5.82
2023-08-06T09:24:03.405Z,5.38
2023-08-06T09:27:07.024Z,5.83
2023-08-06T09:30:10.959Z,5.47
2023-08-06T09:33:20.877Z,5.80
2023-08-06T09:36:24.413Z,5.30
2023-08-06T09:39:32.401Z,5.70
2023-08-06T09:42:38.941Z,6.27
2023-08-06T09:45:42.539Z,8.90
2023-08-06T09:48:49.253Z,10.40
2023-08-06T09:51:55.939Z,9.90
2023-08-06T09:55:00.310Z,10.25
2023-08-06T09:58:04.911Z,10.87
2023-08-06T10:01:08.777Z,10.02
2023-08-06T10:04:23.333Z,10.45
2023-08-06T10:07:29.244Z,9.75
2023-08-06T10:10:33.584Z,11.75
2023-08-06T10:13:38.282Z,12.13
2023-08-06T10:16:44.080Z,12.93
2023-08-06T10:19:49.328Z,10.80
2023-08-06T10:23:06.753Z,11.25
2023-08-06T10:26:10.809Z,10.63
2023-08-06T10:29:39.374Z,11.67
2023-08-06T10:32:51.125Z,10.93
2023-08-06T10:36:06.590Z,11.13
2023-08-06T10:39:25.890Z,11.10
2023-08-06T10:42:34.501Z,11.85
2023-08-06T10:45:39.767Z,11.33
2023-08-06T10:48:47.434Z,12.55
2023-08-06T10:51:51.247Z,13.35
2023-08-06T10:54:57.377Z,12.98
2023-08-06T10:58:01.233Z,14.55
2023-08-06T11:01:04.758Z,13.43
2023-08-06T11:04:08.426Z,12.10
2023-08-06T11:07:12.421Z,13.13
2023-08-06T11:10:16.302Z,13.07
2023-08-06T11:13:20.598Z,13.82
2023-08-06T11:16:28.673Z,13.50
2023-08-06T11:19:32.265Z,14.38
2023-08-06T11:22:35.842Z,15.32
2023-08-06T11:25:45.843Z,14.60
2023-08-06T11:28:49.410Z,14.98
2023-08-06T11:31:53.300Z,13.50
2023-08-06T11:34:58.067Z,13.98
2023-08-06T11:38:02.631Z,14.32
2023-08-06T11:41:08.558Z,13.57
2023-08-06T11:44:17.861Z,13.07
2023-08-06T11:47:22.136Z,12.03
2023-08-06T11:50:29.496Z,11.25
2023-08-06T11:53:33.141Z,11.10
2023-08-06T11:56:37.242Z,10.93
2023-08-06T11:59:41.536Z,12.75
2023-08-06T12:02:47.162Z,14.80
2023-08-06T12:05:50.788Z,14.05
2023-08-06T12:08:54.200Z,14.55
2023-08-06T12:11:58.980Z,13.18
2023-08-06T12:15:03.166Z,12.38
2023-08-06T12:18:08.029Z,11.67
2023-08-06T12:21:11.665Z,11.48
2023-08-06T12:24:15.224Z,13.13
2023-08-06T12:27:19.408Z,11.93
2023-08-06T12:30:23.365Z,13.07
2023-08-06T12:33:27.287Z,13.57
2023-08-06T12:36:31.091Z,12.18
2023-08-06T12:39:34.766Z,13.05
2023-08-06T12:42:38.278Z,13.38
2023-08-06T12:45:41.877Z,13.32
2023-08-06T12:48:45.546Z,17.77
2023-08-06T12:51:50.348Z,13.63
2023-08-06T12:54:53.871Z,12.95
2023-08-06T12:57:58.656Z,11.43
2023-08-06T13:01:02.518Z,12.52
2023-08-06T13:04:19.768Z,11.37
2023-08-06T13:07:25.738Z,11.30
2023-08-06T13:10:30.961Z,12.50
2023-08-06T13:13:34.400Z,11.63
2023-08-06T13:16:39.553Z,11.32
2023-08-06T13:19:43.417Z,11.60
2023-08-06T13:22:48.296Z,12.45
2023-08-06T13:25:51.740Z,11.98
2023-08-06T13:28:55.377Z,12.43
2023-08-06T13:31:58.984Z,12.60
2023-08-06T13:35:02.857Z,13.77
2023-08-06T13:38:06.709Z,12.98
2023-08-06T13:41:10.298Z,12.75
2023-08-06T13:44:15.955Z,12.02
2023-08-06T13:47:19.753Z,11.90
2023-08-06T13:50:24.085Z,10.73
2023-08-06T13:53:31.767Z,10.93
2023-08-06T13:56:36.802Z,10.98
2023-08-06T13:59:40.856Z,10.32
2023-08-06T14:02:46.245Z,9.52
2023-08-06T14:05:50.630Z,9.00
2023-08-06T14:08:54.252Z,8.70
2023-08-06T14:11:57.949Z,10.23
2023-08-06T14:15:01.442Z,12.18
2023-08-06T14:18:05.134Z,12.68
2023-08-06T14:21:08.598Z,12.90
2023-08-06T14:24:12.337Z,13.00
2023-08-06T14:27:15.906Z,13.57
2023-08-06T14:30:20.178Z,12.25
2023-08-06T14:33:27.893Z,11.07
2023-08-06T14:36:31.786Z,10.73
2023-08-06T14:39:35.039Z,10.93
2023-08-06T14:42:38.644Z,11.85
2023-08-06T14:45:42.341Z,10.95
2023-08-06T14:48:46.005Z,11.60
2023-08-06T14:51:49.508Z,10.57
2023-08-06T14:54:54.194Z,10.90
2023-08-06T14:57:58.040Z,10.77
2023-08-06T15:01:01.676Z,9.85
2023-08-06T15:04:05.477Z,10.63
2023-08-06T15:07:11.459Z,10.37
2023-08-06T15:10:26.620Z,10.80
2023-08-06T15:13:31.902Z,10.45
2023-08-06T15:16:38.532Z,10.52
2023-08-06T15:19:42.138Z,9.85
2023-08-06T15:22:45.815Z,9.30
2023-08-06T15:25:49.438Z,10.15
2023-08-06T15:28:52.942Z,11.65
2023-08-06T15:31:56.731Z,11.02
2023-08-06T15:35:00.594Z,10.75
2023-08-06T15:38:04.199Z,8.80
2023-08-06T15:41:07.622Z,8.85
2023-08-06T15:44:11.251Z,9.05
2023-08-06T15:47:15.252Z,8.52
2023-08-06T15:50:18.892Z,9.50
2023-08-06T15:53:22.536Z,9.40
2023-08-06T15:56:26.357Z,9.95
2023-08-06T15:59:31.764Z,10.77
2023-08-06T16:02:35.747Z,10.90
2023-08-06T16:05:39.380Z,10.77
2023-08-06T16:08:42.904Z,10.50
2023-08-06T16:11:47.157Z,11.27
2023-08-06T16:14:51.298Z,10.60
2023-08-06T16:17:54.881Z,10.55
2023-08-06T16:20:58.491Z,10.98
2023-08-06T16:24:02.416Z,11.37
2023-08-06T16:27:06.520Z,10.00
2023-08-06T16:30:10.663Z,10.25
2023-08-06T16:33:14.536Z,11.27
2023-08-06T16:36:18.202Z,12.35
2023-08-06T16:39:23.209Z,11.00
2023-08-06T16:42:26.826Z,10.52
2023-08-06T16:45:32.431Z,10.85
2023-08-06T16:48:37.842Z,10.40
2023-08-06T16:51:41.087Z,10.68
2023-08-06T16:54:44.797Z,10.10
2023-08-06T16:57:48.551Z,10.60
2023-08-06T17:00:52.200Z,12.57
2023-08-06T17:03:57.021Z,12.63
2023-08-06T17:07:00.575Z,11.02
2023-08-06T17:10:04.842Z,11.00
2023-08-06T17:13:19.234Z,9.18
2023-08-06T17:16:24.391Z,10.40
2023-08-06T17:19:27.809Z,10.35
2023-08-06T17:22:31.526Z,10.00
2023-08-06T17:25:37.251Z,10.20
2023-08-06T17:28:40.789Z,9.60
2023-08-06T17:31:44.425Z,9.68
2023-08-06T17:34:47.952Z,9.25
2023-08-06T17:37:51.503Z,10.43
2023-08-06T17:40:57.275Z,9.13
2023-08-06T17:44:00.851Z,9.55
2023-08-06T17:47:04.790Z,9.40
2023-08-06T17:50:08.601Z,8.77
2023-08-06T17:53:12.177Z,8.73
2023-08-06T17:56:17.274Z,8.27
2023-08-06T17:59:20.975Z,7.80
2023-08-06T18:02:24.652Z,8.38
2023-08-06T18:05:32.467Z,8.10
2023-08-06T18:08:36.105Z,7.93
2023-08-06T18:11:39.502Z,7.83
2023-08-06T18:14:43.741Z,7.50
2023-08-06T18:17:48.414Z,7.95
2023-08-06T18:20:52.025Z,6.90
2023-08-06T18:23:55.526Z,7.05
2023-08-06T18:26:59.463Z,7.63
2023-08-06T18:30:03.065Z,7.30
2023-08-06T18:33:06.639Z,7.15
2023-08-06T18:36:11.360Z,7.30
2023-08-06T18:39:15.189Z,7.18
2023-08-06T18:42:19.119Z,7.20
2023-08-06T18:45:22.687Z,7.30
2023-08-06T18:48:27.319Z,6.97
2023-08-06T18:51:30.967Z,6.85
2023-08-06T18:54:34.461Z,6.68
2023-08-06T18:57:38.365Z,7.20
2023-08-06T19:00:42.495Z,7.30
2023-08-06T19:03:46.073Z,7.18
2023-08-06T19:06:49.793Z,7.15
2023-08-06T19:09:53.280Z,7.28
2023-08-06T19:13:00.203Z,7.80
2023-08-06T19:16:03.947Z,6.90
2023-08-06T19:19:07.542Z,7.25
2023-08-06T19:22:12.100Z,6.93
2023-08-06T19:25:15.652Z,7.15
2023-08-06T19:28:21.074Z,7.73
2023-08-06T19:31:24.676Z,7.15
2023-08-06T19:34:28.337Z,6.82
2023-08-06T19:37:31.860Z,6.90
2023-08-06T19:40:35.359Z,6.63
2023-08-06T19:43:39.458Z,6.77
2023-08-06T19:46:42.902Z,6.40
2023-08-06T19:49:46.399Z,7.07
2023-08-06T19:52:49.969Z,6.90
2023-08-06T19:55:53.548Z,7.35
2023-08-06T19:58:57.358Z,7.50
2023-08-06T20:02:00.853Z,8.38
2023-08-06T20:05:05.258Z,7.13
2023-08-06T20:08:08.729Z,7.70
2023-08-06T20:11:12.523Z,7.00
2023-08-06T20:14:16.645Z,7.20
2023-08-06T20:17:20.117Z,7.80
2023-08-06T20:20:23.659Z,8.55
2023-08-06T20:23:28.055Z,7.93
2023-08-06T20:26:31.658Z,8.10
2023-08-06T20:29:36.411Z,7.07
2023-08-06T20:32:40.551Z,7.88
2023-08-06T20:35:44.414Z,7.50
2023-08-06T20:38:47.807Z,7.38
2023-08-06T20:41:51.502Z,7.32
2023-08-06T20:44:54.921Z,7.03
2023-08-06T20:47:58.706Z,7.10
2023-08-06T20:51:02.211Z,7.20
2023-08-06T20:54:05.980Z,7.00
2023-08-06T20:57:09.664Z,7.75
2023-08-06T21:00:15.397Z,7.17
2023-08-06T21:03:18.903Z,7.70
2023-08-06T21:06:22.262Z,7.50
2023-08-06T21:09:25.909Z,6.70
2023-08-06T21:12:29.313Z,6.75
2023-08-06T21:15:32.858Z,6.90
2023-08-06T21:18:36.764Z,7.18
2023-08-06T21:21:41.707Z,7.22
2023-08-06T21:24:45.465Z,7.35
2023-08-06T21:27:49.861Z,6.78
2023-08-06T21:31:01.020Z,8.03
2023-08-06T21:34:04.611Z,7.18
2023-08-06T21:37:08.248Z,7.57
2023-08-06T21:40:12.635Z,7.40
2023-08-06T21:43:16.343Z,7.22
2023-08-06T21:46:21.871Z,7.03
2023-08-06T21:49:25.849Z,7.40
2023-08-06T21:52:29.423Z,7.85
2023-08-06T21:55:34.019Z,6.45
2023-08-06T21:58:51.114Z,6.43
2023-08-06T22:01:54.939Z,6.97
2023-08-06T22:04:58.520Z,6.32
2023-08-06T22:08:02.110Z,7.68
2023-08-06T22:11:06.148Z,6.70
2023-08-06T22:14:09.603Z,7.10
2023-08-06T22:17:13.638Z,6.77
2023-08-06T22:20:17.865Z,7.35
2023-08-06T22:23:21.298Z,7.50
2023-08-06T22:26:24.843Z,7.20
2023-08-06T22:29:28.296Z,6.72
2023-08-06T22:32:31.983Z,6.83
2023-08-06T22:35:35.496Z,6.40
2023-08-06T22:38:39.172Z,7.55
2023-08-06T22:41:42.757Z,6.88
2023-08-06T22:44:46.197Z,7.15
2023-08-06T22:47:50.088Z,7.63
2023-08-06T22:50:54.273Z,7.95
2023-08-06T22:53:57.792Z,8.07
2023-08-06T22:57:01.601Z,7.95
2023-08-06T23:00:06.232Z,7.93
2023-08-06T23:03:12.898Z,9.33
2023-08-06T23:06:17.159Z,7.90
2023-08-06T23:09:20.843Z,8.15
2023-08-06T23:12:24.458Z,7.40
2023-08-06T23:15:28.076Z,7.32
2023-08-06T23:18:31.621Z,7.37
2023-08-06T23:21:35.136Z,7.55
2023-08-06T23:24:38.730Z,7.93
2023-08-06T23:27:42.292Z,7.40
2023-08-06T23:30:50.914Z,8.32
2023-08-06T23:33:54.521Z,7.57
2023-08-06T23:36:58.212Z,7.65
2023-08-06T23:40:01.939Z,7.38
2023-08-06T23:43:05.536Z,7.82
2023-08-06T23:46:09.017Z,8.27
2023-08-06T23:49:12.585Z,7.77
2023-08-06T23:52:16.083Z,7.78
2023-08-06T23:55:19.819Z,8.20
2023-08-06T23:58:23.659Z,8.27
